ARG1508 SABE-SAWC
Flight info
| Callsign | ARG1508 |
|---|---|
| Flight time | 2h 48m |
| Altitude | 38000 |
| Route | PAL9 GBE UT694 IREMO UP664 CRV UW48 BOKUK BOKUK2Q |
| Aircraft | B38M/M-SDE1FGHILRWXY/HB1 |
Departure
| Time | 2026-05-06 14:53 |
|---|---|
| Airport | Aeroparque Jorge Newbery (SABE) |
Arrival
| Time | 2026-05-06 17:41 |
|---|---|
| Airport | El Calafate - Commander Armando Tola International Airport (SAWC) |
| Time | Latitude | Longitude | Altitude | Speed | Heading |
|---|---|---|---|---|---|
| 2026-05-06 14:27 | -34.55759 | -58.41314 | 29 ft | 0 kts | 40° |
| 2026-05-06 14:42 | -34.55765 | -58.41320 | 29 ft | 2 kts | 40° |
| 2026-05-06 14:43 | -34.55773 | -58.41328 | 30 ft | 2 kts | 40° |
| 2026-05-06 14:43 | -34.55783 | -58.41338 | 30 ft | 2 kts | 33° |
| 2026-05-06 14:43 | -34.55792 | -58.41344 | 29 ft | 1 kts | 357° |
| 2026-05-06 14:43 | -34.55797 | -58.41343 | 29 ft | 1 kts | 329° |
| 2026-05-06 14:44 | -34.55802 | -58.41339 | 29 ft | 1 kts | 315° |
| 2026-05-06 14:44 | -34.55805 | -58.41334 | 29 ft | 1 kts | 308° |
| 2026-05-06 14:44 | -34.55808 | -58.41329 | 29 ft | 1 kts | 305° |
| 2026-05-06 14:45 | -34.55811 | -58.41325 | 29 ft | 0 kts | 303° |
| 2026-05-06 14:47 | -34.55807 | -58.41332 | 29 ft | 3 kts | 303° |
| 2026-05-06 14:47 | -34.55791 | -58.41362 | 29 ft | 6 kts | 302° |
| 2026-05-06 14:48 | -34.55764 | -58.41415 | 29 ft | 9 kts | 300° |
| 2026-05-06 14:48 | -34.55732 | -58.41487 | 29 ft | 10 kts | 298° |
| 2026-05-06 14:48 | -34.55734 | -58.41551 | 29 ft | 7 kts | 232° |
| 2026-05-06 14:48 | -34.55774 | -58.41587 | 29 ft | 8 kts | 219° |
| 2026-05-06 14:49 | -34.55784 | -58.41624 | 29 ft | 4 kts | 279° |
| 2026-05-06 14:49 | -34.55773 | -58.41660 | 29 ft | 6 kts | 298° |
| 2026-05-06 14:49 | -34.55748 | -58.41718 | 29 ft | 10 kts | 297° |
| 2026-05-06 14:49 | -34.55705 | -58.41808 | 29 ft | 14 kts | 303° |
| 2026-05-06 14:50 | -34.55641 | -58.41922 | 29 ft | 18 kts | 304° |
| 2026-05-06 14:50 | -34.55558 | -58.42062 | 29 ft | 23 kts | 307° |
| 2026-05-06 14:50 | -34.55476 | -58.42196 | 29 ft | 21 kts | 307° |
| 2026-05-06 14:50 | -34.55400 | -58.42318 | 29 ft | 10 kts | 307° |
| 2026-05-06 14:51 | -34.55366 | -58.42390 | 29 ft | 9 kts | 282° |
| 2026-05-06 14:51 | -34.55359 | -58.42459 | 29 ft | 7 kts | 267° |
| 2026-05-06 14:51 | -34.55370 | -58.42492 | 29 ft | 2 kts | 229° |
| 2026-05-06 14:51 | -34.55388 | -58.42512 | 29 ft | 2 kts | 213° |
| 2026-05-06 14:52 | -34.55400 | -58.42514 | 29 ft | 3 kts | 172° |
| 2026-05-06 14:52 | -34.55407 | -58.42506 | 29 ft | 2 kts | 128° |
| 2026-05-06 14:52 | -34.55422 | -58.42480 | 29 ft | 20 kts | 124° |
| 2026-05-06 14:52 | -34.55635 | -58.42092 | 30 ft | 90 kts | 124° |
| 2026-05-06 14:53 | -34.56106 | -58.41244 | 30 ft | 150 kts | 126° |
| 2026-05-06 14:53 | -34.56798 | -58.40072 | 353 ft | 182 kts | 120° |
| 2026-05-06 14:53 | -34.57552 | -58.38732 | 1019 ft | 203 kts | 119° |
| 2026-05-06 14:53 | -34.58416 | -58.37355 | 1853 ft | 205 kts | 124° |
| 2026-05-06 14:54 | -34.59303 | -58.36008 | 2679 ft | 204 kts | 123° |
| 2026-05-06 14:54 | -34.60194 | -58.34632 | 3318 ft | 212 kts | 123° |
| 2026-05-06 14:54 | -34.61097 | -58.33199 | 3970 ft | 216 kts | 123° |
| 2026-05-06 14:54 | -34.62076 | -58.31799 | 4715 ft | 222 kts | 141° |
| 2026-05-06 14:55 | -34.63514 | -58.31238 | 5423 ft | 219 kts | 189° |
| 2026-05-06 14:55 | -34.64858 | -58.31912 | 6063 ft | 209 kts | 229° |
| 2026-05-06 14:55 | -34.65821 | -58.33236 | 6620 ft | 212 kts | 237° |
| 2026-05-06 14:55 | -34.66836 | -58.34637 | 7111 ft | 228 kts | 234° |
| 2026-05-06 14:56 | -34.67950 | -58.36073 | 7754 ft | 238 kts | 232° |
| 2026-05-06 14:56 | -34.69131 | -58.37549 | 8396 ft | 249 kts | 231° |
| 2026-05-06 14:56 | -34.70383 | -58.39081 | 8887 ft | 268 kts | 230° |
| 2026-05-06 14:56 | -34.71738 | -58.40711 | 9471 ft | 281 kts | 229° |
| 2026-05-06 14:57 | -34.73151 | -58.42399 | 10181 ft | 285 kts | 229° |
| 2026-05-06 14:57 | -34.74560 | -58.44090 | 11043 ft | 283 kts | 230° |
| 2026-05-06 14:57 | -34.75968 | -58.45782 | 11787 ft | 288 kts | 230° |
| 2026-05-06 14:57 | -34.77429 | -58.47535 | 12261 ft | 303 kts | 230° |
| 2026-05-06 14:58 | -34.78966 | -58.49383 | 12740 ft | 317 kts | 230° |
| 2026-05-06 14:58 | -34.80566 | -58.51283 | 13458 ft | 322 kts | 227° |
| 2026-05-06 14:58 | -34.82510 | -58.52707 | 14279 ft | 334 kts | 206° |
| 2026-05-06 14:58 | -34.84793 | -58.53249 | 14980 ft | 348 kts | 187° |
| 2026-05-06 14:59 | -34.87249 | -58.53118 | 15651 ft | 355 kts | 183° |
| 2026-05-06 14:59 | -34.89721 | -58.52960 | 16292 ft | 359 kts | 183° |
| 2026-05-06 14:59 | -34.92148 | -58.52792 | 16695 ft | 371 kts | 183° |
| 2026-05-06 14:59 | -34.94755 | -58.52599 | 17254 ft | 376 kts | 183° |
| 2026-05-06 15:00 | -34.97364 | -58.52405 | 17994 ft | 376 kts | 184° |
| 2026-05-06 15:00 | -35.00004 | -58.52205 | 18553 ft | 380 kts | 184° |
| 2026-05-06 15:00 | -35.02657 | -58.52004 | 19099 ft | 383 kts | 184° |
| 2026-05-06 15:00 | -35.05290 | -58.51804 | 19656 ft | 385 kts | 184° |
| 2026-05-06 15:01 | -35.07986 | -58.51600 | 20267 ft | 388 kts | 184° |
| 2026-05-06 15:01 | -35.10696 | -58.51395 | 20882 ft | 394 kts | 184° |
| 2026-05-06 15:01 | -35.13479 | -58.51187 | 21321 ft | 409 kts | 184° |
| 2026-05-06 15:01 | -35.16384 | -58.50968 | 21520 ft | 425 kts | 184° |
| 2026-05-06 15:02 | -35.19353 | -58.50741 | 21597 ft | 438 kts | 183° |
| 2026-05-06 15:02 | -35.22424 | -58.50505 | 22020 ft | 441 kts | 183° |
| 2026-05-06 15:02 | -35.25472 | -58.50273 | 22691 ft | 438 kts | 184° |
| 2026-05-06 15:02 | -35.28524 | -58.50040 | 23376 ft | 436 kts | 184° |
| 2026-05-06 15:03 | -35.31533 | -58.49810 | 23908 ft | 434 kts | 184° |
| 2026-05-06 15:03 | -35.34562 | -58.49579 | 24425 ft | 433 kts | 184° |
| 2026-05-06 15:03 | -35.37574 | -58.49349 | 24970 ft | 431 kts | 184° |
| 2026-05-06 15:03 | -35.40523 | -58.49124 | 25484 ft | 430 kts | 184° |
| 2026-05-06 15:04 | -35.43511 | -58.48895 | 25920 ft | 432 kts | 184° |
| 2026-05-06 15:04 | -35.46543 | -58.48664 | 26088 ft | 440 kts | 184° |
| 2026-05-06 15:04 | -35.49619 | -58.48428 | 26476 ft | 441 kts | 184° |
| 2026-05-06 15:04 | -35.52680 | -58.48193 | 27026 ft | 439 kts | 184° |
| 2026-05-06 15:05 | -35.55723 | -58.47960 | 27524 ft | 438 kts | 184° |
| 2026-05-06 15:05 | -35.58759 | -58.47727 | 28014 ft | 437 kts | 184° |
| 2026-05-06 15:05 | -35.61794 | -58.47494 | 28489 ft | 436 kts | 184° |
| 2026-05-06 15:05 | -35.64778 | -58.47265 | 28960 ft | 435 kts | 184° |
| 2026-05-06 15:06 | -35.67836 | -58.47030 | 29435 ft | 434 kts | 184° |
| 2026-05-06 15:06 | -35.70803 | -58.46802 | 29895 ft | 432 kts | 184° |
| 2026-05-06 15:06 | -35.73765 | -58.46949 | 30244 ft | 418 kts | 199° |
| 2026-05-06 15:06 | -35.76454 | -58.48071 | 30599 ft | 400 kts | 214° |
| 2026-05-06 15:07 | -35.78895 | -58.49692 | 30912 ft | 398 kts | 217° |
| 2026-05-06 15:07 | -35.81307 | -58.51394 | 31196 ft | 398 kts | 218° |
| 2026-05-06 15:07 | -35.83671 | -58.53136 | 31535 ft | 396 kts | 219° |
| 2026-05-06 15:07 | -35.86026 | -58.54905 | 31872 ft | 395 kts | 220° |
| 2026-05-06 15:08 | -35.88336 | -58.56664 | 32173 ft | 394 kts | 220° |
| 2026-05-06 15:08 | -35.90667 | -58.58451 | 32492 ft | 394 kts | 220° |
| 2026-05-06 15:08 | -35.93002 | -58.60249 | 32584 ft | 400 kts | 220° |
| 2026-05-06 15:09 | -35.97813 | -58.63959 | 32625 ft | 414 kts | 220° |
| 2026-05-06 15:09 | -36.02795 | -58.67806 | 32764 ft | 425 kts | 221° |
| 2026-05-06 15:09 | -36.05266 | -58.69716 | 33145 ft | 423 kts | 221° |
| 2026-05-06 15:10 | -36.07763 | -58.71649 | 33473 ft | 422 kts | 221° |
| 2026-05-06 15:10 | -36.10244 | -58.73570 | 33794 ft | 421 kts | 221° |
| 2026-05-06 15:10 | -36.12725 | -58.75493 | 34122 ft | 419 kts | 221° |
| 2026-05-06 15:10 | -36.15192 | -58.77406 | 34420 ft | 417 kts | 222° |
| 2026-05-06 15:11 | -36.17640 | -58.79307 | 34713 ft | 415 kts | 222° |
| 2026-05-06 15:11 | -36.20093 | -58.81212 | 34998 ft | 414 kts | 222° |
| 2026-05-06 15:11 | -36.22539 | -58.83115 | 35082 ft | 418 kts | 222° |
| 2026-05-06 15:12 | -36.27524 | -58.86994 | 35351 ft | 422 kts | 222° |
| 2026-05-06 15:12 | -36.30013 | -58.88933 | 35634 ft | 420 kts | 223° |
| 2026-05-06 15:12 | -36.32484 | -58.90860 | 35878 ft | 419 kts | 223° |
| 2026-05-06 15:12 | -36.34941 | -58.92778 | 36133 ft | 417 kts | 223° |
| 2026-05-06 15:13 | -36.37367 | -58.94672 | 36387 ft | 416 kts | 223° |
| 2026-05-06 15:13 | -36.39819 | -58.96588 | 36660 ft | 414 kts | 223° |
| 2026-05-06 15:13 | -36.42249 | -58.98489 | 36913 ft | 414 kts | 223° |
| 2026-05-06 15:14 | -36.47204 | -59.02370 | 37047 ft | 423 kts | 222° |
| 2026-05-06 15:14 | -36.49684 | -59.04313 | 37395 ft | 421 kts | 222° |
| 2026-05-06 15:14 | -36.52157 | -59.06254 | 37702 ft | 419 kts | 223° |
| 2026-05-06 15:14 | -36.54595 | -59.08168 | 37898 ft | 418 kts | 222° |
| 2026-05-06 15:15 | -36.57039 | -59.10088 | 37884 ft | 415 kts | 222° |
| 2026-05-06 15:15 | -36.61917 | -59.13926 | 37891 ft | 413 kts | 222° |
| 2026-05-06 15:16 | -36.66763 | -59.17743 | 37893 ft | 412 kts | 222° |
| 2026-05-06 15:16 | -36.71621 | -59.21577 | 37896 ft | 412 kts | 222° |
| 2026-05-06 15:17 | -36.76425 | -59.25373 | 37898 ft | 411 kts | 222° |
| 2026-05-06 15:17 | -36.81259 | -59.29199 | 37886 ft | 411 kts | 222° |
| 2026-05-06 15:18 | -36.86099 | -59.33035 | 37902 ft | 410 kts | 222° |
| 2026-05-06 15:18 | -36.90916 | -59.36859 | 37897 ft | 410 kts | 222° |
| 2026-05-06 15:19 | -36.95728 | -59.40685 | 37901 ft | 410 kts | 222° |
| 2026-05-06 15:19 | -37.00518 | -59.44498 | 37900 ft | 410 kts | 222° |
| 2026-05-06 15:20 | -37.04552 | -59.47714 | 37897 ft | 410 kts | 222° |
| 2026-05-06 15:20 | -37.10161 | -59.52191 | 37899 ft | 411 kts | 222° |
| 2026-05-06 15:21 | -37.14186 | -59.55410 | 37924 ft | 412 kts | 222° |
| 2026-05-06 15:21 | -37.18944 | -59.59308 | 37922 ft | 410 kts | 223° |
| 2026-05-06 15:22 | -37.24467 | -59.63985 | 37894 ft | 411 kts | 223° |
| 2026-05-06 15:22 | -37.28428 | -59.67335 | 37905 ft | 412 kts | 223° |
| 2026-05-06 15:23 | -37.33190 | -59.71365 | 37900 ft | 413 kts | 223° |
| 2026-05-06 15:23 | -37.37962 | -59.75412 | 37914 ft | 415 kts | 223° |
| 2026-05-06 15:24 | -37.42738 | -59.79467 | 37902 ft | 416 kts | 223° |
| 2026-05-06 15:24 | -37.47587 | -59.83592 | 37892 ft | 418 kts | 223° |
| 2026-05-06 15:25 | -37.52381 | -59.87676 | 37895 ft | 420 kts | 223° |
| 2026-05-06 15:25 | -37.57234 | -59.91818 | 37898 ft | 421 kts | 223° |
| 2026-05-06 15:26 | -37.62096 | -59.95972 | 37902 ft | 423 kts | 223° |
| 2026-05-06 15:26 | -37.66951 | -60.00129 | 37897 ft | 425 kts | 223° |
| 2026-05-06 15:27 | -37.71858 | -60.04336 | 37901 ft | 427 kts | 223° |
| 2026-05-06 15:27 | -37.76791 | -60.08572 | 37898 ft | 429 kts | 223° |
| 2026-05-06 15:28 | -37.81749 | -60.12838 | 37896 ft | 431 kts | 223° |
| 2026-05-06 15:28 | -37.86683 | -60.17088 | 37895 ft | 433 kts | 223° |
| 2026-05-06 15:29 | -37.91676 | -60.21398 | 37900 ft | 435 kts | 223° |
| 2026-05-06 15:29 | -37.96687 | -60.25729 | 37898 ft | 436 kts | 223° |
| 2026-05-06 15:30 | -38.01718 | -60.30086 | 37905 ft | 437 kts | 223° |
| 2026-05-06 15:30 | -38.06739 | -60.34441 | 37900 ft | 438 kts | 223° |
| 2026-05-06 15:31 | -38.11765 | -60.38807 | 37901 ft | 439 kts | 224° |
| 2026-05-06 15:31 | -38.16824 | -60.43153 | 37899 ft | 440 kts | 223° |
| 2026-05-06 15:32 | -38.24445 | -60.49605 | 37909 ft | 440 kts | 223° |
| 2026-05-06 15:32 | -38.29541 | -60.53933 | 37902 ft | 439 kts | 224° |
| 2026-05-06 15:33 | -38.34606 | -60.58242 | 37902 ft | 439 kts | 224° |
| 2026-05-06 15:33 | -38.39692 | -60.62579 | 37908 ft | 439 kts | 224° |
| 2026-05-06 15:34 | -38.44764 | -60.66908 | 37889 ft | 438 kts | 224° |
| 2026-05-06 15:34 | -38.49803 | -60.71218 | 37898 ft | 438 kts | 224° |
| 2026-05-06 15:35 | -38.54871 | -60.75559 | 37901 ft | 438 kts | 224° |
| 2026-05-06 15:35 | -38.59921 | -60.79894 | 37909 ft | 438 kts | 224° |
| 2026-05-06 15:36 | -38.64978 | -60.84241 | 37903 ft | 438 kts | 224° |
| 2026-05-06 15:36 | -38.70048 | -60.88608 | 37907 ft | 438 kts | 224° |
| 2026-05-06 15:37 | -38.75106 | -60.92971 | 37899 ft | 438 kts | 224° |
| 2026-05-06 15:37 | -38.80140 | -60.97321 | 37898 ft | 438 kts | 224° |
| 2026-05-06 15:38 | -38.85192 | -61.01695 | 37900 ft | 438 kts | 224° |
| 2026-05-06 15:38 | -38.90257 | -61.06087 | 37890 ft | 437 kts | 224° |
| 2026-05-06 15:39 | -38.95308 | -61.10475 | 37883 ft | 437 kts | 224° |
| 2026-05-06 15:39 | -39.00312 | -61.14830 | 37885 ft | 437 kts | 225° |
| 2026-05-06 15:40 | -39.05364 | -61.19235 | 37875 ft | 438 kts | 225° |
| 2026-05-06 15:40 | -39.10409 | -61.23640 | 37869 ft | 438 kts | 225° |
| 2026-05-06 15:41 | -39.15442 | -61.28042 | 37866 ft | 439 kts | 225° |
| 2026-05-06 15:41 | -39.20510 | -61.32484 | 37865 ft | 440 kts | 225° |
| 2026-05-06 15:42 | -39.25578 | -61.36933 | 37861 ft | 441 kts | 225° |
| 2026-05-06 15:42 | -39.30661 | -61.41404 | 37854 ft | 442 kts | 225° |
| 2026-05-06 15:43 | -39.35750 | -61.45887 | 37856 ft | 442 kts | 224° |
| 2026-05-06 15:43 | -39.40809 | -61.50352 | 37856 ft | 443 kts | 224° |
| 2026-05-06 15:44 | -39.45908 | -61.54861 | 37846 ft | 444 kts | 224° |
| 2026-05-06 15:44 | -39.51018 | -61.59388 | 37848 ft | 444 kts | 224° |
| 2026-05-06 15:45 | -39.56126 | -61.63921 | 37852 ft | 445 kts | 224° |
| 2026-05-06 15:45 | -39.61206 | -61.68438 | 37850 ft | 446 kts | 224° |
| 2026-05-06 15:46 | -39.66330 | -61.73001 | 37854 ft | 446 kts | 224° |
| 2026-05-06 15:46 | -39.71457 | -61.77576 | 37855 ft | 447 kts | 224° |
| 2026-05-06 15:47 | -39.76593 | -61.82165 | 37855 ft | 448 kts | 224° |
| 2026-05-06 15:47 | -39.81709 | -61.86745 | 37858 ft | 449 kts | 224° |
| 2026-05-06 15:48 | -39.86829 | -61.91395 | 37849 ft | 444 kts | 229° |
| 2026-05-06 15:48 | -39.91533 | -61.96544 | 37858 ft | 443 kts | 229° |
| 2026-05-06 15:49 | -39.96298 | -62.01656 | 37852 ft | 444 kts | 229° |
| 2026-05-06 15:49 | -40.01097 | -62.06794 | 37861 ft | 444 kts | 229° |
| 2026-05-06 15:50 | -40.05865 | -62.11906 | 37867 ft | 444 kts | 229° |
| 2026-05-06 15:50 | -40.10658 | -62.17054 | 37867 ft | 445 kts | 229° |
| 2026-05-06 15:51 | -40.15405 | -62.22161 | 37870 ft | 445 kts | 229° |
| 2026-05-06 15:51 | -40.20184 | -62.27314 | 37872 ft | 445 kts | 229° |
| 2026-05-06 15:52 | -40.24943 | -62.32455 | 37871 ft | 445 kts | 229° |
| 2026-05-06 15:52 | -40.29718 | -62.37622 | 37876 ft | 444 kts | 229° |
| 2026-05-06 15:53 | -40.34491 | -62.42798 | 37877 ft | 444 kts | 229° |
| 2026-05-06 15:53 | -40.39252 | -62.47970 | 37878 ft | 444 kts | 229° |
| 2026-05-06 15:54 | -40.43974 | -62.53110 | 37877 ft | 444 kts | 229° |
| 2026-05-06 15:54 | -40.48727 | -62.58293 | 37875 ft | 443 kts | 229° |
| 2026-05-06 15:55 | -40.53475 | -62.63480 | 37882 ft | 443 kts | 229° |
| 2026-05-06 15:55 | -40.58202 | -62.68653 | 37872 ft | 444 kts | 229° |
| 2026-05-06 15:56 | -40.62966 | -62.73878 | 37872 ft | 445 kts | 229° |
| 2026-05-06 15:56 | -40.67722 | -62.79103 | 37867 ft | 446 kts | 229° |
| 2026-05-06 15:57 | -40.72458 | -62.84318 | 37858 ft | 446 kts | 229° |
| 2026-05-06 15:57 | -40.77238 | -62.89590 | 37865 ft | 448 kts | 229° |
| 2026-05-06 15:58 | -40.82030 | -62.94883 | 37861 ft | 448 kts | 229° |
| 2026-05-06 15:58 | -40.86846 | -63.00120 | 37852 ft | 454 kts | 223° |
| 2026-05-06 15:59 | -40.92065 | -63.04778 | 37850 ft | 455 kts | 223° |
| 2026-05-06 15:59 | -40.97279 | -63.09571 | 37862 ft | 456 kts | 223° |
| 2026-05-06 16:00 | -41.02494 | -63.14391 | 37861 ft | 456 kts | 223° |
| 2026-05-06 16:00 | -41.07705 | -63.19218 | 37861 ft | 457 kts | 223° |
| 2026-05-06 16:01 | -41.12897 | -63.24038 | 37864 ft | 458 kts | 223° |
| 2026-05-06 16:01 | -41.18134 | -63.28908 | 37861 ft | 460 kts | 223° |
| 2026-05-06 16:02 | -41.23367 | -63.33785 | 37855 ft | 460 kts | 223° |
| 2026-05-06 16:02 | -41.28587 | -63.38660 | 37856 ft | 460 kts | 223° |
| 2026-05-06 16:03 | -41.33844 | -63.43577 | 37857 ft | 460 kts | 223° |
| 2026-05-06 16:03 | -41.39075 | -63.48482 | 37858 ft | 460 kts | 223° |
| 2026-05-06 16:04 | -41.44276 | -63.53368 | 37845 ft | 459 kts | 223° |
| 2026-05-06 16:04 | -41.49502 | -63.58286 | 37849 ft | 459 kts | 223° |
| 2026-05-06 16:05 | -41.54706 | -63.63195 | 37847 ft | 459 kts | 223° |
| 2026-05-06 16:05 | -41.59927 | -63.68129 | 37847 ft | 458 kts | 223° |
| 2026-05-06 16:06 | -41.65115 | -63.73042 | 37852 ft | 458 kts | 223° |
| 2026-05-06 16:06 | -41.70315 | -63.77976 | 37851 ft | 458 kts | 223° |
| 2026-05-06 16:07 | -41.75495 | -63.82901 | 37852 ft | 457 kts | 222° |
| 2026-05-06 16:07 | -41.79842 | -63.87041 | 37853 ft | 457 kts | 222° |
| 2026-05-06 16:08 | -41.85016 | -63.91979 | 37855 ft | 457 kts | 222° |
| 2026-05-06 16:08 | -41.90157 | -63.96896 | 37854 ft | 456 kts | 222° |
| 2026-05-06 16:09 | -41.95327 | -64.01849 | 37857 ft | 456 kts | 222° |
| 2026-05-06 16:09 | -42.00499 | -64.06816 | 37859 ft | 455 kts | 222° |
| 2026-05-06 16:10 | -42.05664 | -64.11784 | 37859 ft | 454 kts | 222° |
| 2026-05-06 16:10 | -42.10766 | -64.16704 | 37858 ft | 453 kts | 222° |
| 2026-05-06 16:11 | -42.15898 | -64.21661 | 37854 ft | 453 kts | 222° |
| 2026-05-06 16:11 | -42.21007 | -64.26607 | 37854 ft | 452 kts | 222° |
| 2026-05-06 16:12 | -42.26110 | -64.31557 | 37854 ft | 451 kts | 222° |
| 2026-05-06 16:12 | -42.31202 | -64.36505 | 37858 ft | 450 kts | 222° |
| 2026-05-06 16:13 | -42.36261 | -64.41432 | 37853 ft | 450 kts | 222° |
| 2026-05-06 16:13 | -42.41329 | -64.46378 | 37858 ft | 449 kts | 222° |
| 2026-05-06 16:14 | -42.46417 | -64.51355 | 37854 ft | 449 kts | 222° |
| 2026-05-06 16:14 | -42.51460 | -64.56296 | 37854 ft | 448 kts | 222° |
| 2026-05-06 16:15 | -42.56501 | -64.61246 | 37856 ft | 447 kts | 222° |
| 2026-05-06 16:15 | -42.61524 | -64.66188 | 37851 ft | 446 kts | 222° |
| 2026-05-06 16:16 | -42.66536 | -64.71129 | 37853 ft | 445 kts | 223° |
| 2026-05-06 16:16 | -42.71527 | -64.76060 | 37850 ft | 444 kts | 223° |
| 2026-05-06 16:17 | -42.76510 | -64.80992 | 37847 ft | 443 kts | 223° |
| 2026-05-06 16:17 | -42.81492 | -64.85934 | 37850 ft | 442 kts | 223° |
| 2026-05-06 16:18 | -42.86464 | -64.90876 | 37850 ft | 442 kts | 223° |
| 2026-05-06 16:18 | -42.91398 | -64.95790 | 37850 ft | 440 kts | 223° |
| 2026-05-06 16:19 | -42.96367 | -65.00749 | 37852 ft | 440 kts | 223° |
| 2026-05-06 16:19 | -43.01274 | -65.05654 | 37858 ft | 438 kts | 223° |
| 2026-05-06 16:20 | -43.06194 | -65.10582 | 37859 ft | 438 kts | 223° |
| 2026-05-06 16:20 | -43.11089 | -65.15494 | 37855 ft | 437 kts | 223° |
| 2026-05-06 16:21 | -43.15997 | -65.20429 | 37863 ft | 436 kts | 223° |
| 2026-05-06 16:21 | -43.20979 | -65.25254 | 37856 ft | 441 kts | 217° |
| 2026-05-06 16:22 | -43.26273 | -65.29452 | 37862 ft | 441 kts | 217° |
| 2026-05-06 16:22 | -43.31583 | -65.33639 | 37859 ft | 440 kts | 217° |
| 2026-05-06 16:23 | -43.36905 | -65.37839 | 37854 ft | 440 kts | 217° |
| 2026-05-06 16:23 | -43.42190 | -65.42018 | 37859 ft | 439 kts | 217° |
| 2026-05-06 16:24 | -43.47501 | -65.46226 | 37856 ft | 439 kts | 217° |
| 2026-05-06 16:24 | -43.52767 | -65.50407 | 37865 ft | 439 kts | 217° |
| 2026-05-06 16:25 | -43.58046 | -65.54606 | 37859 ft | 438 kts | 217° |
| 2026-05-06 16:25 | -43.63325 | -65.58815 | 37852 ft | 437 kts | 217° |
| 2026-05-06 16:26 | -43.68586 | -65.63017 | 37856 ft | 437 kts | 217° |
| 2026-05-06 16:26 | -43.73812 | -65.67200 | 37855 ft | 436 kts | 217° |
| 2026-05-06 16:27 | -43.79068 | -65.71417 | 37861 ft | 435 kts | 218° |
| 2026-05-06 16:27 | -43.84312 | -65.75631 | 37862 ft | 435 kts | 218° |
| 2026-05-06 16:28 | -43.89503 | -65.79812 | 37861 ft | 434 kts | 218° |
| 2026-05-06 16:28 | -43.94739 | -65.84037 | 37866 ft | 433 kts | 218° |
| 2026-05-06 16:29 | -43.99925 | -65.88231 | 37867 ft | 433 kts | 218° |
| 2026-05-06 16:29 | -44.05117 | -65.92440 | 37854 ft | 432 kts | 218° |
| 2026-05-06 16:30 | -44.09441 | -65.95952 | 37865 ft | 432 kts | 218° |
| 2026-05-06 16:30 | -44.15532 | -66.00910 | 37864 ft | 432 kts | 218° |
| 2026-05-06 16:31 | -44.20717 | -66.05139 | 37864 ft | 431 kts | 218° |
| 2026-05-06 16:31 | -44.25858 | -66.09341 | 37874 ft | 431 kts | 218° |
| 2026-05-06 16:32 | -44.31038 | -66.13584 | 37869 ft | 430 kts | 218° |
| 2026-05-06 16:32 | -44.36198 | -66.17819 | 37868 ft | 430 kts | 218° |
| 2026-05-06 16:33 | -44.41366 | -66.22069 | 37872 ft | 430 kts | 218° |
| 2026-05-06 16:34 | -44.49118 | -66.28462 | 37889 ft | 435 kts | 217° |
| 2026-05-06 16:34 | -44.54350 | -66.32787 | 37880 ft | 441 kts | 217° |
| 2026-05-06 16:35 | -44.59708 | -66.37227 | 37878 ft | 448 kts | 217° |
| 2026-05-06 16:35 | -44.65071 | -66.41679 | 37881 ft | 454 kts | 216° |
| 2026-05-06 16:36 | -44.70558 | -66.46245 | 37884 ft | 456 kts | 216° |
| 2026-05-06 16:36 | -44.76015 | -66.50796 | 37873 ft | 456 kts | 217° |
| 2026-05-06 16:37 | -44.81449 | -66.55338 | 37892 ft | 456 kts | 217° |
| 2026-05-06 16:37 | -44.86919 | -66.59920 | 37894 ft | 456 kts | 217° |
| 2026-05-06 16:38 | -44.92369 | -66.64493 | 37886 ft | 456 kts | 217° |
| 2026-05-06 16:38 | -44.97792 | -66.69055 | 37891 ft | 456 kts | 217° |
| 2026-05-06 16:39 | -45.03216 | -66.73631 | 37884 ft | 455 kts | 217° |
| 2026-05-06 16:39 | -45.08689 | -66.78255 | 37908 ft | 455 kts | 217° |
| 2026-05-06 16:40 | -45.14104 | -66.82840 | 37906 ft | 454 kts | 217° |
| 2026-05-06 16:40 | -45.19496 | -66.87417 | 37909 ft | 454 kts | 217° |
| 2026-05-06 16:41 | -45.24926 | -66.92036 | 37911 ft | 454 kts | 217° |
| 2026-05-06 16:41 | -45.30341 | -66.96653 | 37909 ft | 454 kts | 217° |
| 2026-05-06 16:42 | -45.35757 | -67.01280 | 37914 ft | 454 kts | 217° |
| 2026-05-06 16:42 | -45.41149 | -67.05898 | 37912 ft | 453 kts | 217° |
| 2026-05-06 16:43 | -45.46557 | -67.10540 | 37912 ft | 453 kts | 217° |
| 2026-05-06 16:43 | -45.51955 | -67.15184 | 37920 ft | 453 kts | 217° |
| 2026-05-06 16:44 | -45.57350 | -67.19836 | 37931 ft | 453 kts | 217° |
| 2026-05-06 16:44 | -45.62713 | -67.24469 | 37946 ft | 453 kts | 217° |
| 2026-05-06 16:45 | -45.68112 | -67.29146 | 37959 ft | 452 kts | 217° |
| 2026-05-06 16:45 | -45.73502 | -67.33824 | 37968 ft | 452 kts | 217° |
| 2026-05-06 16:46 | -45.78791 | -67.38593 | 37977 ft | 450 kts | 219° |
| 2026-05-06 16:46 | -45.84028 | -67.43536 | 37967 ft | 451 kts | 219° |
| 2026-05-06 16:47 | -45.89272 | -67.48472 | 37965 ft | 451 kts | 219° |
| 2026-05-06 16:47 | -45.94527 | -67.53429 | 37957 ft | 451 kts | 219° |
| 2026-05-06 16:48 | -45.99768 | -67.58385 | 37947 ft | 451 kts | 219° |
| 2026-05-06 16:48 | -46.04971 | -67.63316 | 37938 ft | 451 kts | 219° |
| 2026-05-06 16:49 | -46.10216 | -67.68297 | 37924 ft | 451 kts | 219° |
| 2026-05-06 16:49 | -46.15458 | -67.73287 | 37928 ft | 451 kts | 219° |
| 2026-05-06 16:50 | -46.20697 | -67.78286 | 37931 ft | 451 kts | 219° |
| 2026-05-06 16:50 | -46.25900 | -67.83264 | 37928 ft | 451 kts | 219° |
| 2026-05-06 16:51 | -46.31128 | -67.88275 | 37928 ft | 451 kts | 219° |
| 2026-05-06 16:51 | -46.36358 | -67.93301 | 37926 ft | 451 kts | 219° |
| 2026-05-06 16:52 | -46.41532 | -67.98284 | 37932 ft | 444 kts | 219° |
| 2026-05-06 16:52 | -46.46684 | -68.03258 | 37936 ft | 444 kts | 219° |
| 2026-05-06 16:53 | -46.51800 | -68.08208 | 37937 ft | 444 kts | 219° |
| 2026-05-06 16:53 | -46.56934 | -68.13187 | 37932 ft | 444 kts | 220° |
| 2026-05-06 16:54 | -46.62074 | -68.18184 | 37935 ft | 444 kts | 220° |
| 2026-05-06 16:54 | -46.67205 | -68.23183 | 37939 ft | 443 kts | 220° |
| 2026-05-06 16:55 | -46.71473 | -68.27350 | 37939 ft | 443 kts | 220° |
| 2026-05-06 16:55 | -46.76603 | -68.32369 | 37938 ft | 443 kts | 220° |
| 2026-05-06 16:56 | -46.81727 | -68.37395 | 37940 ft | 444 kts | 220° |
| 2026-05-06 16:56 | -46.86838 | -68.42420 | 37942 ft | 444 kts | 220° |
| 2026-05-06 16:57 | -46.91944 | -68.47451 | 37941 ft | 444 kts | 220° |
| 2026-05-06 16:57 | -46.97070 | -68.52514 | 37940 ft | 444 kts | 220° |
| 2026-05-06 16:58 | -47.02189 | -68.57581 | 37949 ft | 445 kts | 220° |
| 2026-05-06 16:58 | -47.07318 | -68.62671 | 37930 ft | 445 kts | 220° |
| 2026-05-06 16:59 | -47.12444 | -68.67771 | 37927 ft | 445 kts | 220° |
| 2026-05-06 16:59 | -47.17562 | -68.72873 | 37929 ft | 444 kts | 220° |
| 2026-05-06 17:00 | -47.22652 | -68.77959 | 37927 ft | 444 kts | 220° |
| 2026-05-06 17:00 | -47.27775 | -68.83091 | 37920 ft | 445 kts | 220° |
| 2026-05-06 17:00 | -47.30307 | -68.85629 | 37948 ft | 428 kts | 220° |
| 2026-05-06 17:01 | -47.32725 | -68.88058 | 37958 ft | 415 kts | 220° |
| 2026-05-06 17:01 | -47.37454 | -68.92821 | 37930 ft | 412 kts | 220° |
| 2026-05-06 17:02 | -47.42197 | -68.97606 | 37924 ft | 411 kts | 220° |
| 2026-05-06 17:02 | -47.46934 | -69.02394 | 37913 ft | 412 kts | 220° |
| 2026-05-06 17:03 | -47.51669 | -69.07191 | 37928 ft | 412 kts | 220° |
| 2026-05-06 17:03 | -47.56372 | -69.11967 | 37925 ft | 413 kts | 220° |
| 2026-05-06 17:04 | -47.61116 | -69.16795 | 37928 ft | 413 kts | 220° |
| 2026-05-06 17:04 | -47.65862 | -69.21636 | 37928 ft | 414 kts | 220° |
| 2026-05-06 17:05 | -47.70610 | -69.26488 | 37924 ft | 414 kts | 220° |
| 2026-05-06 17:05 | -47.75324 | -69.31319 | 37928 ft | 414 kts | 220° |
| 2026-05-06 17:06 | -47.80083 | -69.36205 | 37933 ft | 415 kts | 220° |
| 2026-05-06 17:06 | -47.84825 | -69.41086 | 37930 ft | 415 kts | 220° |
| 2026-05-06 17:07 | -47.89570 | -69.45979 | 37930 ft | 415 kts | 220° |
| 2026-05-06 17:07 | -47.94330 | -69.50900 | 37931 ft | 416 kts | 220° |
| 2026-05-06 17:08 | -47.99067 | -69.55809 | 37931 ft | 416 kts | 220° |
| 2026-05-06 17:08 | -48.03826 | -69.60751 | 37933 ft | 417 kts | 220° |
| 2026-05-06 17:09 | -48.08580 | -69.65701 | 37934 ft | 417 kts | 220° |
| 2026-05-06 17:09 | -48.13338 | -69.70665 | 37933 ft | 417 kts | 220° |
| 2026-05-06 17:10 | -48.18095 | -69.75639 | 37932 ft | 418 kts | 220° |
| 2026-05-06 17:10 | -48.22851 | -69.80622 | 37937 ft | 418 kts | 220° |
| 2026-05-06 17:11 | -48.27632 | -69.85642 | 37934 ft | 418 kts | 220° |
| 2026-05-06 17:11 | -48.32401 | -69.90661 | 37934 ft | 419 kts | 220° |
| 2026-05-06 17:12 | -48.37179 | -69.95701 | 37932 ft | 419 kts | 220° |
| 2026-05-06 17:12 | -48.41926 | -70.00720 | 37939 ft | 420 kts | 220° |
| 2026-05-06 17:13 | -48.46724 | -70.05773 | 37940 ft | 420 kts | 220° |
| 2026-05-06 17:13 | -48.51524 | -70.10811 | 37928 ft | 420 kts | 220° |
| 2026-05-06 17:13 | -48.53924 | -70.13331 | 37709 ft | 417 kts | 220° |
| 2026-05-06 17:14 | -48.56269 | -70.15799 | 37310 ft | 413 kts | 220° |
| 2026-05-06 17:14 | -48.58611 | -70.18265 | 36802 ft | 409 kts | 220° |
| 2026-05-06 17:14 | -48.60936 | -70.20717 | 36315 ft | 405 kts | 220° |
| 2026-05-06 17:14 | -48.63237 | -70.23146 | 35846 ft | 402 kts | 220° |
| 2026-05-06 17:15 | -48.65523 | -70.25561 | 35381 ft | 398 kts | 220° |
| 2026-05-06 17:15 | -48.67785 | -70.27954 | 34927 ft | 395 kts | 220° |
| 2026-05-06 17:15 | -48.70002 | -70.30303 | 34479 ft | 392 kts | 220° |
| 2026-05-06 17:15 | -48.72235 | -70.32670 | 34018 ft | 389 kts | 220° |
| 2026-05-06 17:16 | -48.74449 | -70.35020 | 33495 ft | 387 kts | 220° |
| 2026-05-06 17:16 | -48.76650 | -70.37358 | 33022 ft | 384 kts | 220° |
| 2026-05-06 17:16 | -48.78829 | -70.39675 | 32535 ft | 380 kts | 220° |
| 2026-05-06 17:16 | -48.80987 | -70.41972 | 32082 ft | 377 kts | 220° |
| 2026-05-06 17:17 | -48.83118 | -70.44244 | 31696 ft | 372 kts | 220° |
| 2026-05-06 17:17 | -48.85225 | -70.46491 | 31283 ft | 368 kts | 220° |
| 2026-05-06 17:17 | -48.87310 | -70.48717 | 30862 ft | 365 kts | 220° |
| 2026-05-06 17:17 | -48.89378 | -70.50928 | 30445 ft | 363 kts | 220° |
| 2026-05-06 17:18 | -48.91429 | -70.53123 | 30020 ft | 365 kts | 220° |
| 2026-05-06 17:18 | -48.93506 | -70.55347 | 29544 ft | 365 kts | 220° |
| 2026-05-06 17:18 | -48.95580 | -70.57571 | 29105 ft | 363 kts | 219° |
| 2026-05-06 17:18 | -48.97643 | -70.59785 | 28686 ft | 361 kts | 219° |
| 2026-05-06 17:19 | -48.99691 | -70.61986 | 28273 ft | 359 kts | 219° |
| 2026-05-06 17:19 | -49.01727 | -70.64176 | 27864 ft | 357 kts | 219° |
| 2026-05-06 17:19 | -49.03724 | -70.66325 | 27462 ft | 355 kts | 219° |
| 2026-05-06 17:19 | -49.05737 | -70.68495 | 27054 ft | 353 kts | 219° |
| 2026-05-06 17:20 | -49.07734 | -70.70650 | 26653 ft | 350 kts | 219° |
| 2026-05-06 17:20 | -49.09723 | -70.72797 | 26250 ft | 349 kts | 219° |
| 2026-05-06 17:20 | -49.11694 | -70.74927 | 25862 ft | 347 kts | 219° |
| 2026-05-06 17:20 | -49.13662 | -70.77057 | 25458 ft | 345 kts | 219° |
| 2026-05-06 17:21 | -49.15618 | -70.79174 | 25073 ft | 343 kts | 219° |
| 2026-05-06 17:21 | -49.17560 | -70.81280 | 24609 ft | 345 kts | 219° |
| 2026-05-06 17:21 | -49.19509 | -70.83395 | 24221 ft | 343 kts | 219° |
| 2026-05-06 17:21 | -49.21465 | -70.85520 | 23837 ft | 342 kts | 219° |
| 2026-05-06 17:22 | -49.23383 | -70.87606 | 23457 ft | 341 kts | 219° |
| 2026-05-06 17:22 | -49.25328 | -70.89723 | 23003 ft | 339 kts | 219° |
| 2026-05-06 17:22 | -49.27225 | -70.91791 | 22599 ft | 336 kts | 219° |
| 2026-05-06 17:22 | -49.29117 | -70.93854 | 22215 ft | 331 kts | 219° |
| 2026-05-06 17:23 | -49.30971 | -70.95878 | 21842 ft | 327 kts | 219° |
| 2026-05-06 17:23 | -49.32823 | -70.97902 | 21469 ft | 323 kts | 219° |
| 2026-05-06 17:23 | -49.34643 | -70.99892 | 21104 ft | 320 kts | 219° |
| 2026-05-06 17:23 | -49.36449 | -71.01869 | 20740 ft | 316 kts | 219° |
| 2026-05-06 17:24 | -49.38236 | -71.03827 | 20376 ft | 315 kts | 219° |
| 2026-05-06 17:24 | -49.40011 | -71.05774 | 20011 ft | 317 kts | 219° |
| 2026-05-06 17:24 | -49.41801 | -71.07739 | 19650 ft | 318 kts | 219° |
| 2026-05-06 17:24 | -49.43599 | -71.09714 | 19279 ft | 318 kts | 219° |
| 2026-05-06 17:25 | -49.45403 | -71.11698 | 18917 ft | 317 kts | 219° |
| 2026-05-06 17:25 | -49.47198 | -71.13673 | 18559 ft | 316 kts | 219° |
| 2026-05-06 17:25 | -49.48953 | -71.15608 | 18201 ft | 313 kts | 219° |
| 2026-05-06 17:25 | -49.50728 | -71.17565 | 17777 ft | 310 kts | 219° |
| 2026-05-06 17:26 | -49.52478 | -71.19496 | 17394 ft | 307 kts | 219° |
| 2026-05-06 17:26 | -49.54186 | -71.21383 | 17049 ft | 303 kts | 219° |
| 2026-05-06 17:26 | -49.55888 | -71.23265 | 16685 ft | 299 kts | 219° |
| 2026-05-06 17:26 | -49.57578 | -71.25134 | 16335 ft | 297 kts | 219° |
| 2026-05-06 17:27 | -49.59264 | -71.27000 | 15972 ft | 301 kts | 219° |
| 2026-05-06 17:27 | -49.60963 | -71.28882 | 15618 ft | 302 kts | 218° |
| 2026-05-06 17:27 | -49.62815 | -71.30453 | 15185 ft | 307 kts | 208° |
| 2026-05-06 17:27 | -49.64742 | -71.31854 | 14853 ft | 304 kts | 209° |
| 2026-05-06 17:28 | -49.66629 | -71.33273 | 14508 ft | 300 kts | 210° |
| 2026-05-06 17:28 | -49.68477 | -71.34683 | 14158 ft | 298 kts | 210° |
| 2026-05-06 17:28 | -49.70325 | -71.36109 | 13807 ft | 295 kts | 210° |
| 2026-05-06 17:28 | -49.72177 | -71.37486 | 13380 ft | 295 kts | 207° |
| 2026-05-06 17:29 | -49.74045 | -71.38797 | 12951 ft | 294 kts | 207° |
| 2026-05-06 17:29 | -49.75906 | -71.40114 | 12585 ft | 291 kts | 207° |
| 2026-05-06 17:29 | -49.77733 | -71.41412 | 12239 ft | 287 kts | 207° |
| 2026-05-06 17:29 | -49.79543 | -71.42700 | 11893 ft | 284 kts | 207° |
| 2026-05-06 17:30 | -49.81297 | -71.43952 | 11587 ft | 277 kts | 207° |
| 2026-05-06 17:30 | -49.83051 | -71.45204 | 11257 ft | 279 kts | 207° |
| 2026-05-06 17:30 | -49.84831 | -71.46477 | 10896 ft | 281 kts | 207° |
| 2026-05-06 17:30 | -49.86595 | -71.47738 | 10556 ft | 279 kts | 207° |
| 2026-05-06 17:31 | -49.88355 | -71.48999 | 10213 ft | 276 kts | 207° |
| 2026-05-06 17:31 | -49.90086 | -71.50239 | 9950 ft | 273 kts | 207° |
| 2026-05-06 17:31 | -49.91810 | -71.51475 | 9588 ft | 271 kts | 206° |
| 2026-05-06 17:31 | -49.93520 | -71.52702 | 9212 ft | 269 kts | 206° |
| 2026-05-06 17:32 | -49.95194 | -71.53905 | 8890 ft | 267 kts | 206° |
| 2026-05-06 17:32 | -49.96879 | -71.55115 | 8564 ft | 266 kts | 206° |
| 2026-05-06 17:32 | -49.98550 | -71.56318 | 8237 ft | 264 kts | 206° |
| 2026-05-06 17:32 | -50.00219 | -71.57519 | 7907 ft | 263 kts | 206° |
| 2026-05-06 17:33 | -50.01875 | -71.58713 | 7582 ft | 261 kts | 206° |
| 2026-05-06 17:33 | -50.03520 | -71.59898 | 7259 ft | 259 kts | 206° |
| 2026-05-06 17:33 | -50.05135 | -71.61063 | 6964 ft | 250 kts | 206° |
| 2026-05-06 17:33 | -50.06663 | -71.62166 | 6685 ft | 239 kts | 206° |
| 2026-05-06 17:34 | -50.08150 | -71.63241 | 6396 ft | 233 kts | 206° |
| 2026-05-06 17:34 | -50.09624 | -71.64307 | 6100 ft | 234 kts | 206° |
| 2026-05-06 17:34 | -50.11098 | -71.65374 | 5803 ft | 233 kts | 206° |
| 2026-05-06 17:34 | -50.12570 | -71.66439 | 5494 ft | 232 kts | 206° |
| 2026-05-06 17:35 | -50.14039 | -71.67504 | 5188 ft | 230 kts | 206° |
| 2026-05-06 17:35 | -50.15482 | -71.68550 | 4939 ft | 227 kts | 206° |
| 2026-05-06 17:35 | -50.16891 | -71.69572 | 4817 ft | 222 kts | 206° |
| 2026-05-06 17:36 | -50.19706 | -71.71616 | 4542 ft | 224 kts | 206° |
| 2026-05-06 17:36 | -50.21107 | -71.72634 | 4434 ft | 217 kts | 206° |
| 2026-05-06 17:36 | -50.22456 | -71.73616 | 4310 ft | 210 kts | 206° |
| 2026-05-06 17:36 | -50.23773 | -71.74574 | 4155 ft | 207 kts | 206° |
| 2026-05-06 17:37 | -50.25034 | -71.75501 | 4004 ft | 198 kts | 208° |
| 2026-05-06 17:37 | -50.25999 | -71.76953 | 3697 ft | 194 kts | 246° |
| 2026-05-06 17:37 | -50.26228 | -71.78961 | 3506 ft | 184 kts | 262° |
| 2026-05-06 17:37 | -50.26378 | -71.80871 | 3337 ft | 171 kts | 261° |
| 2026-05-06 17:38 | -50.26517 | -71.82725 | 3198 ft | 172 kts | 262° |
| 2026-05-06 17:38 | -50.26650 | -71.84579 | 3029 ft | 168 kts | 262° |
| 2026-05-06 17:38 | -50.26774 | -71.86370 | 2847 ft | 163 kts | 263° |
| 2026-05-06 17:38 | -50.26896 | -71.88106 | 2650 ft | 163 kts | 263° |
| 2026-05-06 17:39 | -50.27015 | -71.89854 | 2438 ft | 161 kts | 263° |
| 2026-05-06 17:39 | -50.27127 | -71.91503 | 2269 ft | 143 kts | 263° |
| 2026-05-06 17:39 | -50.27213 | -71.93011 | 1990 ft | 137 kts | 264° |
| 2026-05-06 17:39 | -50.27308 | -71.94496 | 1634 ft | 137 kts | 264° |
| 2026-05-06 17:40 | -50.27412 | -71.95989 | 1458 ft | 139 kts | 264° |
| 2026-05-06 17:40 | -50.27500 | -71.97488 | 1364 ft | 138 kts | 265° |
| 2026-05-06 17:40 | -50.27590 | -71.98989 | 1248 ft | 138 kts | 264° |
| 2026-05-06 17:40 | -50.27697 | -72.00469 | 1007 ft | 135 kts | 263° |
| 2026-05-06 17:41 | -50.27798 | -72.01902 | 856 ft | 132 kts | 264° |
| 2026-05-06 17:41 | -50.27896 | -72.03300 | 677 ft | 130 kts | 265° |
| 2026-05-06 17:41 | -50.27974 | -72.04572 | 649 ft | 92 kts | 264° |
| 2026-05-06 17:41 | -50.28014 | -72.05224 | 651 ft | 37 kts | 265° |
| 2026-05-06 17:42 | -50.28025 | -72.05413 | 651 ft | 23 kts | 265° |
| 2026-05-06 17:42 | -50.28046 | -72.05780 | 652 ft | 27 kts | 265° |
| 2026-05-06 17:42 | -50.28068 | -72.06080 | 653 ft | 29 kts | 252° |
| 2026-05-06 17:42 | -50.28157 | -72.06311 | 655 ft | 21 kts | 231° |
| 2026-05-06 17:43 | -50.28232 | -72.06401 | 657 ft | 20 kts | 186° |
| 2026-05-06 17:43 | -50.28310 | -72.06283 | 655 ft | 17 kts | 94° |
| 2026-05-06 17:43 | -50.28300 | -72.06083 | 654 ft | 21 kts | 84° |
| 2026-05-06 17:43 | -50.28283 | -72.05827 | 656 ft | 26 kts | 84° |
| 2026-05-06 17:44 | -50.28265 | -72.05541 | 652 ft | 24 kts | 84° |
| 2026-05-06 17:44 | -50.28256 | -72.05375 | 651 ft | 13 kts | 86° |
| 2026-05-06 17:44 | -50.28262 | -72.05275 | 652 ft | 3 kts | 139° |
| 2026-05-06 17:44 | -50.28295 | -72.05264 | 653 ft | 8 kts | 179° |
| 2026-05-06 17:45 | -50.28326 | -72.05289 | 651 ft | 4 kts | 230° |
| 2026-05-06 17:45 | -50.28333 | -72.05304 | 651 ft | 0 kts | 234° |